createdAt,value
2022-08-20T00:00:15.814Z,96177.00
2022-08-20T00:04:20.301Z,96175.00
2022-08-20T00:08:23.830Z,96187.00
2022-08-20T00:12:57.886Z,96192.00
2022-08-20T00:17:01.150Z,96193.00
2022-08-20T00:21:08.577Z,96196.00
2022-08-20T00:25:13.191Z,96189.00
2022-08-20T00:29:16.828Z,96190.00
2022-08-20T00:33:24.554Z,96189.00
2022-08-20T00:37:29.203Z,96182.00
2022-08-20T00:41:32.516Z,96179.00
2022-08-20T00:45:36.924Z,96183.00
2022-08-20T00:49:40.353Z,96183.00
2022-08-20T00:53:45.818Z,96183.00
2022-08-20T00:58:00.680Z,96184.00
2022-08-20T01:02:25.481Z,96180.00
2022-08-20T01:06:28.901Z,96186.00
2022-08-20T01:10:36.742Z,96175.00
2022-08-20T01:15:09.304Z,96171.00
2022-08-20T01:19:29.587Z,96174.00
2022-08-20T01:23:41.617Z,96176.00
2022-08-20T01:28:11.732Z,96174.00
2022-08-20T01:32:14.878Z,96178.00
2022-08-20T01:36:22.191Z,96178.00
2022-08-20T01:40:39.949Z,96178.00
2022-08-20T01:45:03.329Z,96180.00
2022-08-20T01:49:15.640Z,96175.00
2022-08-20T01:53:29.833Z,96171.00
2022-08-20T01:58:00.356Z,96178.00
2022-08-20T02:02:05.567Z,96176.00
2022-08-20T02:06:08.809Z,96174.00
2022-08-20T02:10:14.782Z,96172.00
2022-08-20T02:14:19.299Z,96173.00
2022-08-20T02:18:24.028Z,96175.00
2022-08-20T02:23:00.832Z,96183.00
2022-08-20T02:27:04.063Z,96171.00
2022-08-20T02:31:08.651Z,96175.00
2022-08-20T02:35:44.782Z,96165.00
2022-08-20T02:39:48.579Z,96173.00
2022-08-20T02:44:22.387Z,96172.00
2022-08-20T02:48:25.575Z,96171.00
2022-08-20T02:52:30.148Z,96176.00
2022-08-20T02:56:33.399Z,96170.00
2022-08-20T03:00:38.301Z,96173.00
2022-08-20T03:05:11.972Z,96182.00
2022-08-20T03:09:16.503Z,96181.00
2022-08-20T03:13:50.382Z,96190.00
2022-08-20T03:17:53.469Z,96187.00
2022-08-20T03:21:56.749Z,96192.00
2022-08-20T03:26:33.170Z,96190.00
2022-08-20T03:30:37.990Z,96201.00
2022-08-20T03:35:14.533Z,96204.00
2022-08-20T03:39:48.179Z,96199.00
2022-08-20T03:44:26.942Z,96206.00
2022-08-20T03:48:31.712Z,96204.00
2022-08-20T03:52:34.907Z,96214.00
2022-08-20T03:56:38.046Z,96215.00
2022-08-20T04:00:43.418Z,96214.00
2022-08-20T04:05:18.976Z,96216.00
2022-08-20T04:09:52.574Z,96214.00
2022-08-20T04:14:30.047Z,96219.00
2022-08-20T04:19:07.526Z,96208.00
2022-08-20T04:23:12.128Z,96211.00
2022-08-20T04:27:46.655Z,96218.00
2022-08-20T04:32:21.367Z,96221.00
2022-08-20T04:36:58.197Z,96221.00
2022-08-20T04:41:36.396Z,96230.00
2022-08-20T04:45:41.614Z,96216.00
2022-08-20T04:50:16.137Z,96216.00
2022-08-20T04:54:50.030Z,96211.00
2022-08-20T04:59:29.004Z,96230.00
2022-08-20T05:04:02.983Z,96235.00
2022-08-20T05:08:40.694Z,96238.00
2022-08-20T05:13:14.222Z,96239.00
2022-08-20T05:17:56.343Z,96239.00
2022-08-20T05:22:31.029Z,96245.00
2022-08-20T05:26:34.857Z,96256.00
2022-08-20T05:31:10.925Z,96252.00
2022-08-20T05:35:47.638Z,96251.00
2022-08-20T05:40:23.067Z,96259.00
2022-08-20T05:44:56.919Z,96268.00
2022-08-20T05:54:17.250Z,96262.00
2022-08-20T05:58:22.681Z,96273.00
2022-08-20T06:02:43.296Z,96267.00
2022-08-20T06:07:05.193Z,96264.00
2022-08-20T06:11:09.788Z,96258.00
2022-08-20T06:15:14.233Z,96253.00
2022-08-20T06:19:48.643Z,96262.00
2022-08-20T06:24:23.493Z,96258.00
2022-08-20T06:29:01.901Z,96260.00
2022-08-20T06:33:35.716Z,96263.00
2022-08-20T06:38:12.626Z,96276.00
2022-08-20T06:42:49.349Z,96278.00
2022-08-20T06:47:27.822Z,96281.00
2022-08-20T06:52:03.588Z,96280.00
2022-08-20T06:56:07.943Z,96277.00
2022-08-20T07:00:44.577Z,96278.00
2022-08-20T07:05:22.906Z,96276.00
2022-08-20T07:09:56.637Z,96279.00
2022-08-20T07:14:00.082Z,96288.00
2022-08-20T07:18:05.874Z,96289.00
2022-08-20T07:22:42.357Z,96293.00
2022-08-20T07:27:16.738Z,96295.00
2022-08-20T07:31:37.443Z,96301.00
2022-08-20T07:35:55.710Z,96294.00
2022-08-20T07:40:01.411Z,96305.00
2022-08-20T07:44:39.438Z,96301.00
2022-08-20T07:48:50.194Z,96310.00
2022-08-20T07:52:54.351Z,96313.00
2022-08-20T07:57:30.046Z,96312.00
2022-08-20T08:02:03.391Z,96320.00
2022-08-20T08:06:40.702Z,96320.00
2022-08-20T08:11:19.378Z,96320.00
2022-08-20T08:15:57.532Z,96321.00
2022-08-20T08:20:28.219Z,96321.00
2022-08-20T08:25:05.797Z,96319.00
2022-08-20T08:29:39.994Z,96327.00
2022-08-20T08:34:18.323Z,96323.00
2022-08-20T08:38:52.239Z,96322.00
2022-08-20T08:43:31.776Z,96330.00
2022-08-20T08:48:05.761Z,96347.00
2022-08-20T08:52:45.138Z,96348.00
2022-08-20T08:57:07.679Z,96349.00
2022-08-20T09:01:13.877Z,96350.00
2022-08-20T09:05:49.825Z,96351.00
2022-08-20T09:09:54.805Z,96351.00
2022-08-20T09:13:58.671Z,96358.00
2022-08-20T09:18:02.103Z,96361.00
2022-08-20T09:22:39.066Z,96366.00
2022-08-20T09:27:17.750Z,96354.00
2022-08-20T09:31:20.914Z,96354.00
2022-08-20T09:35:26.367Z,96355.00
2022-08-20T09:39:30.600Z,96353.00
2022-08-20T09:43:35.153Z,96357.00
2022-08-20T09:47:38.404Z,96358.00
2022-08-20T09:51:44.834Z,96361.00
2022-08-20T09:55:51.189Z,96364.00
2022-08-20T09:59:59.848Z,96363.00
2022-08-20T10:04:30.485Z,96372.00
2022-08-20T10:09:07.124Z,96356.00
2022-08-20T10:13:43.944Z,96381.00
2022-08-20T10:18:22.270Z,96378.00
2022-08-20T10:22:27.356Z,96372.00
2022-08-20T10:26:30.492Z,96369.00
2022-08-20T10:31:08.073Z,96376.00
2022-08-20T10:35:46.403Z,96381.00
2022-08-20T10:40:20.754Z,96380.00
2022-08-20T10:44:23.946Z,96383.00
2022-08-20T10:48:27.340Z,96383.00
2022-08-20T10:52:50.386Z,96377.00
2022-08-20T10:57:26.544Z,96378.00
2022-08-20T11:02:00.846Z,96379.00
2022-08-20T11:06:04.428Z,96386.00
2022-08-20T11:10:13.733Z,96396.00
2022-08-20T11:14:17.244Z,96399.00
2022-08-20T11:18:20.423Z,96385.00
2022-08-20T11:22:23.759Z,96378.00
2022-08-20T11:26:28.290Z,96389.00
2022-08-20T11:30:41.490Z,96388.00
2022-08-20T11:35:41.754Z,96390.00
2022-08-20T11:39:54.635Z,96388.00
2022-08-20T11:44:30.023Z,96383.00
2022-08-20T11:49:06.898Z,96387.00
2022-08-20T11:53:43.719Z,96386.00
2022-08-20T11:58:20.431Z,96383.00
2022-08-20T12:02:59.047Z,96384.00
2022-08-20T12:07:10.575Z,96378.00
2022-08-20T12:11:13.912Z,96374.00
2022-08-20T12:15:17.098Z,96373.00
2022-08-20T12:19:56.953Z,96370.00
2022-08-20T12:24:30.790Z,96364.00
2022-08-20T12:29:07.743Z,96371.00
2022-08-20T12:33:44.744Z,96372.00
2022-08-20T12:38:21.526Z,96385.00
2022-08-20T12:43:00.020Z,96383.00
2022-08-20T12:47:15.322Z,96374.00
2022-08-20T12:51:18.447Z,96377.00
2022-08-20T12:55:52.518Z,96381.00
2022-08-20T13:00:32.443Z,96383.00
2022-08-20T13:05:12.206Z,96382.00
2022-08-20T13:09:46.340Z,96373.00
2022-08-20T13:14:23.938Z,96365.00
2022-08-20T13:19:02.505Z,96369.00
2022-08-20T13:23:39.555Z,96365.00
2022-08-20T13:28:16.429Z,96370.00
2022-08-20T13:32:53.281Z,96361.00
2022-08-20T13:37:32.005Z,96362.00
2022-08-20T13:42:05.714Z,96361.00
2022-08-20T13:46:42.950Z,96355.00
2022-08-20T13:50:46.814Z,96358.00
2022-08-20T13:55:23.778Z,96354.00
2022-08-20T13:59:59.141Z,96349.00
2022-08-20T14:04:02.366Z,96348.00
2022-08-20T14:08:39.129Z,96343.00
2022-08-20T14:12:44.070Z,96352.00
2022-08-20T14:16:48.272Z,96349.00
2022-08-20T14:21:22.318Z,96353.00
2022-08-20T14:25:59.801Z,96342.00
2022-08-20T14:30:06.355Z,96341.00
2022-08-20T14:34:09.475Z,96349.00
2022-08-20T14:38:46.317Z,96344.00
2022-08-20T14:42:51.528Z,96350.00
2022-08-20T14:47:28.660Z,96344.00
2022-08-20T14:56:47.254Z,96338.00
2022-08-20T15:00:50.416Z,96333.00
2022-08-20T15:05:27.030Z,96330.00
2022-08-20T15:09:33.269Z,96341.00
2022-08-20T15:14:07.151Z,96342.00
2022-08-20T15:18:12.028Z,96340.00
2022-08-20T15:22:49.633Z,96328.00
2022-08-20T15:27:26.078Z,96343.00
2022-08-20T15:32:00.847Z,96344.00
2022-08-20T15:36:04.977Z,96351.00
2022-08-20T15:40:40.947Z,96364.00
2022-08-20T15:45:21.769Z,96370.00
2022-08-20T15:49:25.998Z,96368.00
2022-08-20T15:53:56.623Z,96364.00
2022-08-20T15:58:36.189Z,96371.00
2022-08-20T16:03:22.036Z,96384.00
2022-08-20T16:07:34.960Z,96381.00
2022-08-20T16:12:03.551Z,96379.00
2022-08-20T16:16:36.859Z,96392.00
2022-08-20T16:21:10.890Z,96394.00
2022-08-20T16:25:56.406Z,96405.00
2022-08-20T16:30:30.870Z,96407.00
2022-08-20T16:34:59.820Z,96402.00
2022-08-20T16:39:38.344Z,96407.00
2022-08-20T16:44:09.014Z,96402.00
2022-08-20T16:48:58.057Z,96397.00
2022-08-20T16:53:23.762Z,96402.00
2022-08-20T16:58:00.494Z,96401.00
2022-08-20T17:02:36.984Z,96392.00
2022-08-20T17:07:15.626Z,96392.00
2022-08-20T17:11:53.197Z,96394.00
2022-08-20T17:16:36.554Z,96398.00
2022-08-20T17:21:06.041Z,96403.00
2022-08-20T17:25:44.828Z,96414.00
2022-08-20T17:30:21.115Z,96418.00
2022-08-20T17:34:56.325Z,96418.00
2022-08-20T17:39:31.678Z,96425.00
2022-08-20T17:44:08.103Z,96430.00
2022-08-20T17:48:44.906Z,96424.00
2022-08-20T17:52:52.298Z,96410.00
2022-08-20T17:57:24.967Z,96415.00
2022-08-20T18:01:58.647Z,96429.00
2022-08-20T18:06:41.476Z,96422.00
2022-08-20T18:11:17.734Z,96440.00
2022-08-20T18:15:30.386Z,96449.00
2022-08-20T18:20:13.184Z,96453.00
2022-08-20T18:24:21.949Z,96461.00
2022-08-20T18:28:55.012Z,96431.00
2022-08-20T18:33:05.286Z,96430.00
2022-08-20T18:37:36.092Z,96420.00
2022-08-20T18:42:26.949Z,96420.00
2022-08-20T18:46:55.801Z,96426.00
2022-08-20T18:56:16.729Z,96437.00
2022-08-20T19:00:52.304Z,96426.00
2022-08-20T19:05:02.231Z,96420.00
2022-08-20T19:09:12.962Z,96419.00
2022-08-20T19:13:47.714Z,96418.00
2022-08-20T19:18:16.756Z,96414.00
2022-08-20T19:22:53.502Z,96423.00
2022-08-20T19:27:04.563Z,96419.00
2022-08-20T19:31:35.209Z,96415.00
2022-08-20T19:36:14.110Z,96416.00
2022-08-20T19:41:11.031Z,96416.00
2022-08-20T19:45:25.164Z,96410.00
2022-08-20T19:49:57.514Z,96414.00
2022-08-20T19:54:26.568Z,96410.00
2022-08-20T19:59:05.632Z,96408.00
2022-08-20T20:03:37.785Z,96407.00
2022-08-20T20:08:14.468Z,96408.00
2022-08-20T20:12:48.576Z,96412.00
2022-08-20T20:17:05.086Z,96412.00
2022-08-20T20:21:14.520Z,96410.00
2022-08-20T20:25:46.321Z,96404.00
2022-08-20T20:30:35.618Z,96408.00
2022-08-20T20:34:55.654Z,96407.00
2022-08-20T20:39:01.346Z,96409.00
2022-08-20T20:43:08.065Z,96400.00
2022-08-20T20:47:21.875Z,96409.00
2022-08-20T20:51:55.385Z,96404.00
2022-08-20T20:56:31.152Z,96406.00
2022-08-20T21:00:35.761Z,96399.00
2022-08-20T21:05:10.519Z,96404.00
2022-08-20T21:09:15.127Z,96396.00
2022-08-20T21:13:18.224Z,96397.00
2022-08-20T21:17:24.145Z,96394.00
2022-08-20T21:21:27.275Z,96390.00
2022-08-20T21:26:05.865Z,96388.00
2022-08-20T21:30:09.729Z,96389.00
2022-08-20T21:34:14.823Z,96391.00
2022-08-20T21:38:17.953Z,96391.00
2022-08-20T21:42:29.141Z,96391.00
2022-08-20T21:46:32.831Z,96390.00
2022-08-20T21:50:37.469Z,96398.00
2022-08-20T21:59:58.302Z,96392.00
2022-08-20T22:04:01.546Z,96391.00
2022-08-20T22:08:05.189Z,96391.00
2022-08-20T22:12:42.006Z,96387.00
2022-08-20T22:16:46.829Z,96386.00
2022-08-20T22:21:22.770Z,96391.00
2022-08-20T22:25:25.877Z,96397.00
2022-08-20T22:29:29.144Z,96399.00
2022-08-20T22:33:34.266Z,96391.00
2022-08-20T22:37:37.638Z,96385.00
2022-08-20T22:41:41.310Z,96393.00
2022-08-20T22:46:18.338Z,96387.00
2022-08-20T22:50:25.066Z,96375.00
2022-08-20T22:54:28.404Z,96389.00
2022-08-20T22:58:31.611Z,96385.00
2022-08-20T23:03:09.135Z,96381.00
2022-08-20T23:07:15.351Z,96377.00
2022-08-20T23:11:18.462Z,96378.00
2022-08-20T23:15:55.353Z,96381.00
2022-08-20T23:19:59.482Z,96375.00
2022-08-20T23:24:04.252Z,96376.00
2022-08-20T23:28:09.317Z,96369.00
2022-08-20T23:32:13.171Z,96365.00
2022-08-20T23:36:19.010Z,96365.00
2022-08-20T23:40:28.396Z,96359.00
2022-08-20T23:44:31.911Z,96350.00
2022-08-20T23:49:08.912Z,96350.00
2022-08-20T23:53:12.157Z,96353.00
2022-08-20T23:57:17.053Z,96350.00
